Terminal Aerodrome Forecast
Issued by NWS

Home | Current Version | Previous Version | Text Only | Print | Product List | Glossary On
Versions: 1 2 3 4 5 6 7 8 9 10 11 12 13 14 15 16 17
000
FTUS43 KBIS 230500
TAFJMS
TAF
KJMS 230535Z 2306/2406 16012KT P6SM SCT080
     FM231900 16016G24KT P6SM BKN030
     FM240200 15010KT P6SM BKN020=

USA.gov is the U.S. government's official web portal to all federal, state and local government web resources and services.